Barranquilla, Colombia

11:08 AM COT en Noviembre 26, 2014 (GMT -0500)
Ernesto Cortissoz | Change Station
CLOSE
Current Station
Aeropuerto
Location: Barranquilla,
Altura: 98 ft
Estaciones meteorológicas cercanas

Alt 98 ft 10.88 °N, 74.78 °W | Updated 8 minutes ago

Scattered Clouds
Nubes dispersas
88 ° F
Sensación térmica 102 ° F
N
4
Viento Variable Viento desde NE

Hoy
Alta -- | Baja -- ° F
--% Posibilidad de precipitaciones
Ayer
Alta -- | Baja -- ° F
Precip. -- pul
5:59 AM 5:33 PM
Creciente, 20% visible
Presión 29.89 pul
Visibilidad 6.2 Millas
Nubes Nubes dispersas 1500 ft
Índice de calor 102 ° F
Punto de rocío 79 ° F
Humedad 75%
Precipitaciones 0.00 pul
Espesor de la nieve No disponible.
UV 10 de una escala de 12
Polen No disponible.
Calidad del aire No disponible.
Flu Activity No disponible.
METAR SKBQ 261600Z 05003KT 9999 SCT015 31/26 A2989

More Conditions Fewer Conditions

Presión 29.89 pul
Visibilidad 6.2 Millas
Nubes Nubes dispersas 1500 ft
Índice de calor 102 ° F
Punto de rocío 79 ° F
Humedad 75%
Precipitaciones 0.00 pul
Espesor de la nieve No disponible.
UV 10 de una escala de 12
Polen No disponible.
Calidad del aire No disponible.
Flu Activity No disponible.
METAR SKBQ 261600Z 05003KT 9999 SCT015 31/26 A2989

More Conditions Fewer Conditions

10-Day Weather Forecast

Almanac

Astronomía

Nov. 26, 2014 Salida Puesta
Hora real
Crepúsculo civil
Crepúsculo náutico
Crepúsculo astronómico
Luna
Horas de luz
Horas de luz
Tomorrow will be .
, % of the Moon is Illuminated

Extremos de hoy

Máximos del país Bajas del país

Community

WunderPhotos

Upload Photos

1,773,780 ¡fotos cargadas!

WunderBlogs® & News

Nearby

Calidad del aire

  Calidad del aire Índice AQ Contaminante
Not available.

Grosos de nieve

Estación Profundido Altura

Actividad de terremotos

Ciudad Distance Mag. Tiempo y dato
Magnitud mínima muestra es 2,5.

Temperaturas de aguas costeras

Lugar Temperatura

Estaciones meteorológicas cercanas